sensor_id;sensor_type;location;lat;lon;timestamp;P1;durP1;ratioP1;P2;durP2;ratioP2
35699;SDS011;21818;51.078;12.108;2023-12-04T00:00:46;6.85;;;3.63;;
35699;SDS011;21818;51.078;12.108;2023-12-04T00:03:11;4.85;;;2.95;;
35699;SDS011;21818;51.078;12.108;2023-12-04T00:05:37;5.03;;;3.13;;
35699;SDS011;21818;51.078;12.108;2023-12-04T00:08:02;7.00;;;3.65;;
35699;SDS011;21818;51.078;12.108;2023-12-04T00:10:28;6.25;;;3.30;;
35699;SDS011;21818;51.078;12.108;2023-12-04T00:12:54;5.18;;;3.33;;
35699;SDS011;21818;51.078;12.108;2023-12-04T00:15:19;4.82;;;3.28;;
35699;SDS011;21818;51.078;12.108;2023-12-04T00:17:46;4.90;;;2.97;;
35699;SDS011;21818;51.078;12.108;2023-12-04T00:20:12;5.38;;;3.65;;
35699;SDS011;21818;51.078;12.108;2023-12-04T00:22:37;5.45;;;3.72;;
35699;SDS011;21818;51.078;12.108;2023-12-04T00:25:04;6.53;;;3.88;;
35699;SDS011;21818;51.078;12.108;2023-12-04T00:27:30;6.97;;;3.78;;
35699;SDS011;21818;51.078;12.108;2023-12-04T00:29:56;5.25;;;3.40;;
35699;SDS011;21818;51.078;12.108;2023-12-04T00:32:22;5.07;;;2.90;;
35699;SDS011;21818;51.078;12.108;2023-12-04T00:34:47;4.57;;;2.95;;
35699;SDS011;21818;51.078;12.108;2023-12-04T00:37:13;4.60;;;2.88;;
35699;SDS011;21818;51.078;12.108;2023-12-04T00:39:38;5.20;;;3.38;;
35699;SDS011;21818;51.078;12.108;2023-12-04T00:42:04;5.57;;;3.67;;
35699;SDS011;21818;51.078;12.108;2023-12-04T00:44:30;5.60;;;3.60;;
35699;SDS011;21818;51.078;12.108;2023-12-04T00:46:55;5.55;;;3.50;;
35699;SDS011;21818;51.078;12.108;2023-12-04T00:49:21;5.35;;;3.35;;
35699;SDS011;21818;51.078;12.108;2023-12-04T00:51:46;4.72;;;3.00;;
35699;SDS011;21818;51.078;12.108;2023-12-04T00:54:12;4.18;;;2.70;;
35699;SDS011;21818;51.078;12.108;2023-12-04T00:56:38;6.60;;;3.28;;
35699;SDS011;21818;51.078;12.108;2023-12-04T00:59:04;4.50;;;2.88;;
35699;SDS011;21818;51.078;12.108;2023-12-04T01:01:31;4.85;;;2.95;;
35699;SDS011;21818;51.078;12.108;2023-12-04T01:03:57;5.70;;;3.28;;
35699;SDS011;21818;51.078;12.108;2023-12-04T01:06:23;5.80;;;3.67;;
35699;SDS011;21818;51.078;12.108;2023-12-04T01:08:49;5.03;;;2.92;;
35699;SDS011;21818;51.078;12.108;2023-12-04T01:11:15;5.53;;;3.28;;
35699;SDS011;21818;51.078;12.108;2023-12-04T01:13:42;6.53;;;3.50;;
35699;SDS011;21818;51.078;12.108;2023-12-04T01:16:08;7.47;;;3.55;;
35699;SDS011;21818;51.078;12.108;2023-12-04T01:18:34;5.75;;;3.13;;
35699;SDS011;21818;51.078;12.108;2023-12-04T01:20:59;4.57;;;2.85;;
35699;SDS011;21818;51.078;12.108;2023-12-04T01:23:25;4.53;;;2.72;;
35699;SDS011;21818;51.078;12.108;2023-12-04T01:25:50;5.15;;;2.95;;
35699;SDS011;21818;51.078;12.108;2023-12-04T01:28:16;4.80;;;3.00;;
35699;SDS011;21818;51.078;12.108;2023-12-04T01:30:42;5.93;;;3.42;;
35699;SDS011;21818;51.078;12.108;2023-12-04T01:33:07;5.95;;;2.85;;
35699;SDS011;21818;51.078;12.108;2023-12-04T01:35:33;5.25;;;3.30;;
35699;SDS011;21818;51.078;12.108;2023-12-04T01:37:59;5.72;;;3.17;;
35699;SDS011;21818;51.078;12.108;2023-12-04T01:40:25;5.00;;;3.58;;
35699;SDS011;21818;51.078;12.108;2023-12-04T01:42:51;7.82;;;3.20;;
35699;SDS011;21818;51.078;12.108;2023-12-04T01:45:16;4.75;;;2.70;;
35699;SDS011;21818;51.078;12.108;2023-12-04T01:47:42;4.32;;;2.60;;
35699;SDS011;21818;51.078;12.108;2023-12-04T01:50:08;5.43;;;3.30;;
35699;SDS011;21818;51.078;12.108;2023-12-04T01:52:35;5.75;;;3.20;;
35699;SDS011;21818;51.078;12.108;2023-12-04T01:55:02;5.25;;;3.22;;
35699;SDS011;21818;51.078;12.108;2023-12-04T01:57:28;4.38;;;2.70;;
35699;SDS011;21818;51.078;12.108;2023-12-04T01:59:53;4.88;;;3.13;;
35699;SDS011;21818;51.078;12.108;2023-12-04T02:02:19;3.75;;;2.53;;
35699;SDS011;21818;51.078;12.108;2023-12-04T02:04:45;7.30;;;3.78;;
35699;SDS011;21818;51.078;12.108;2023-12-04T02:07:11;5.57;;;3.33;;
35699;SDS011;21818;51.078;12.108;2023-12-04T02:09:37;5.25;;;3.00;;
35699;SDS011;21818;51.078;12.108;2023-12-04T02:12:02;4.60;;;2.92;;
35699;SDS011;21818;51.078;12.108;2023-12-04T02:14:28;5.63;;;2.70;;
35699;SDS011;21818;51.078;12.108;2023-12-04T02:16:54;4.45;;;2.97;;
35699;SDS011;21818;51.078;12.108;2023-12-04T02:19:21;4.43;;;2.67;;
35699;SDS011;21818;51.078;12.108;2023-12-04T02:21:47;5.95;;;2.90;;
35699;SDS011;21818;51.078;12.108;2023-12-04T02:24:12;5.82;;;3.20;;
35699;SDS011;21818;51.078;12.108;2023-12-04T02:26:39;4.50;;;2.92;;
35699;SDS011;21818;51.078;12.108;2023-12-04T02:29:13;5.20;;;2.85;;
35699;SDS011;21818;51.078;12.108;2023-12-04T02:31:41;4.95;;;2.92;;
35699;SDS011;21818;51.078;12.108;2023-12-04T02:34:08;5.20;;;3.00;;
35699;SDS011;21818;51.078;12.108;2023-12-04T02:36:37;5.57;;;2.85;;
35699;SDS011;21818;51.078;12.108;2023-12-04T02:39:05;3.30;;;2.45;;
35699;SDS011;21818;51.078;12.108;2023-12-04T02:41:31;5.55;;;3.13;;
35699;SDS011;21818;51.078;12.108;2023-12-04T02:43:57;4.85;;;2.70;;
35699;SDS011;21818;51.078;12.108;2023-12-04T02:46:22;5.57;;;3.17;;
35699;SDS011;21818;51.078;12.108;2023-12-04T02:48:48;4.80;;;2.88;;
35699;SDS011;21818;51.078;12.108;2023-12-04T02:51:13;4.72;;;2.80;;
35699;SDS011;21818;51.078;12.108;2023-12-04T02:53:39;3.72;;;2.53;;
35699;SDS011;21818;51.078;12.108;2023-12-04T02:56:05;4.68;;;2.95;;
35699;SDS011;21818;51.078;12.108;2023-12-04T02:58:30;4.03;;;2.40;;
35699;SDS011;21818;51.078;12.108;2023-12-04T03:00:59;3.72;;;2.38;;
35699;SDS011;21818;51.078;12.108;2023-12-04T03:03:24;4.38;;;1.90;;
35699;SDS011;21818;51.078;12.108;2023-12-04T03:05:50;5.00;;;2.85;;
35699;SDS011;21818;51.078;12.108;2023-12-04T03:08:15;3.78;;;2.20;;
35699;SDS011;21818;51.078;12.108;2023-12-04T03:10:41;5.93;;;2.67;;
35699;SDS011;21818;51.078;12.108;2023-12-04T03:13:06;3.25;;;1.90;;
35699;SDS011;21818;51.078;12.108;2023-12-04T03:15:32;4.60;;;2.67;;
35699;SDS011;21818;51.078;12.108;2023-12-04T03:17:58;4.15;;;2.60;;
35699;SDS011;21818;51.078;12.108;2023-12-04T03:20:25;4.07;;;2.47;;
35699;SDS011;21818;51.078;12.108;2023-12-04T03:22:51;4.25;;;2.20;;
35699;SDS011;21818;51.078;12.108;2023-12-04T03:25:16;4.35;;;2.55;;
35699;SDS011;21818;51.078;12.108;2023-12-04T03:27:42;5.18;;;2.70;;
35699;SDS011;21818;51.078;12.108;2023-12-04T03:30:07;3.03;;;2.35;;
35699;SDS011;21818;51.078;12.108;2023-12-04T03:32:33;4.05;;;2.60;;
35699;SDS011;21818;51.078;12.108;2023-12-04T03:34:59;4.20;;;2.72;;
35699;SDS011;21818;51.078;12.108;2023-12-04T03:37:26;2.45;;;1.60;;
35699;SDS011;21818;51.078;12.108;2023-12-04T03:39:51;4.22;;;2.50;;
35699;SDS011;21818;51.078;12.108;2023-12-04T03:42:17;4.03;;;2.22;;
35699;SDS011;21818;51.078;12.108;2023-12-04T03:44:42;3.97;;;2.22;;
35699;SDS011;21818;51.078;12.108;2023-12-04T03:47:08;3.83;;;2.47;;
35699;SDS011;21818;51.078;12.108;2023-12-04T03:49:33;3.90;;;2.88;;
35699;SDS011;21818;51.078;12.108;2023-12-04T03:51:59;4.63;;;2.25;;
35699;SDS011;21818;51.078;12.108;2023-12-04T03:54:24;3.50;;;1.90;;
35699;SDS011;21818;51.078;12.108;2023-12-04T03:56:50;3.35;;;2.13;;
35699;SDS011;21818;51.078;12.108;2023-12-04T03:59:16;2.85;;;2.08;;
35699;SDS011;21818;51.078;12.108;2023-12-04T04:01:41;3.15;;;2.03;;
35699;SDS011;21818;51.078;12.108;2023-12-04T04:04:07;5.75;;;2.65;;
35699;SDS011;21818;51.078;12.108;2023-12-04T04:06:32;3.67;;;2.08;;
35699;SDS011;21818;51.078;12.108;2023-12-04T04:08:58;3.90;;;2.58;;
35699;SDS011;21818;51.078;12.108;2023-12-04T04:11:23;3.60;;;2.42;;
35699;SDS011;21818;51.078;12.108;2023-12-04T04:13:49;3.70;;;2.47;;
35699;SDS011;21818;51.078;12.108;2023-12-04T04:16:15;3.28;;;2.33;;
35699;SDS011;21818;51.078;12.108;2023-12-04T04:18:41;3.38;;;2.17;;
35699;SDS011;21818;51.078;12.108;2023-12-04T04:21:07;2.92;;;2.30;;
35699;SDS011;21818;51.078;12.108;2023-12-04T04:23:33;3.42;;;2.28;;
35699;SDS011;21818;51.078;12.108;2023-12-04T04:25:59;3.20;;;2.13;;
35699;SDS011;21818;51.078;12.108;2023-12-04T04:28:24;3.40;;;2.40;;
35699;SDS011;21818;51.078;12.108;2023-12-04T04:30:50;5.30;;;2.67;;
35699;SDS011;21818;51.078;12.108;2023-12-04T04:33:16;3.88;;;2.47;;
35699;SDS011;21818;51.078;12.108;2023-12-04T04:35:42;3.78;;;2.10;;
35699;SDS011;21818;51.078;12.108;2023-12-04T04:38:08;3.75;;;2.35;;
35699;SDS011;21818;51.078;12.108;2023-12-04T04:40:34;5.60;;;3.13;;
35699;SDS011;21818;51.078;12.108;2023-12-04T04:43:00;3.47;;;1.85;;
35699;SDS011;21818;51.078;12.108;2023-12-04T04:45:25;2.72;;;2.10;;
35699;SDS011;21818;51.078;12.108;2023-12-04T04:47:51;4.90;;;2.28;;
35699;SDS011;21818;51.078;12.108;2023-12-04T04:50:16;3.13;;;2.08;;
35699;SDS011;21818;51.078;12.108;2023-12-04T04:52:42;4.63;;;2.58;;
35699;SDS011;21818;51.078;12.108;2023-12-04T04:55:08;4.88;;;2.83;;
35699;SDS011;21818;51.078;12.108;2023-12-04T04:57:33;4.25;;;2.63;;
35699;SDS011;21818;51.078;12.108;2023-12-04T04:59:59;4.82;;;2.58;;
35699;SDS011;21818;51.078;12.108;2023-12-04T05:02:24;4.45;;;2.20;;
35699;SDS011;21818;51.078;12.108;2023-12-04T05:04:50;2.90;;;1.83;;
35699;SDS011;21818;51.078;12.108;2023-12-04T05:07:15;3.72;;;2.40;;
35699;SDS011;21818;51.078;12.108;2023-12-04T05:09:41;2.67;;;1.42;;
35699;SDS011;21818;51.078;12.108;2023-12-04T05:12:07;3.92;;;1.77;;
35699;SDS011;21818;51.078;12.108;2023-12-04T05:14:32;2.25;;;1.52;;
35699;SDS011;21818;51.078;12.108;2023-12-04T05:16:58;2.78;;;2.00;;
35699;SDS011;21818;51.078;12.108;2023-12-04T05:19:23;3.15;;;1.92;;
35699;SDS011;21818;51.078;12.108;2023-12-04T05:21:49;4.05;;;2.50;;
35699;SDS011;21818;51.078;12.108;2023-12-04T05:24:15;3.10;;;1.70;;
35699;SDS011;21818;51.078;12.108;2023-12-04T05:26:40;2.60;;;1.67;;
35699;SDS011;21818;51.078;12.108;2023-12-04T05:29:06;4.05;;;2.17;;
35699;SDS011;21818;51.078;12.108;2023-12-04T05:31:31;3.70;;;2.42;;
35699;SDS011;21818;51.078;12.108;2023-12-04T05:33:57;4.75;;;2.33;;
35699;SDS011;21818;51.078;12.108;2023-12-04T05:36:22;2.55;;;1.70;;
35699;SDS011;21818;51.078;12.108;2023-12-04T05:38:48;3.45;;;2.35;;
35699;SDS011;21818;51.078;12.108;2023-12-04T05:41:13;3.65;;;2.05;;
35699;SDS011;21818;51.078;12.108;2023-12-04T05:43:39;4.10;;;2.10;;
35699;SDS011;21818;51.078;12.108;2023-12-04T05:46:04;2.13;;;1.67;;
35699;SDS011;21818;51.078;12.108;2023-12-04T05:48:30;2.67;;;1.85;;
35699;SDS011;21818;51.078;12.108;2023-12-04T05:50:55;4.75;;;2.25;;
35699;SDS011;21818;51.078;12.108;2023-12-04T05:53:21;3.50;;;1.92;;
35699;SDS011;21818;51.078;12.108;2023-12-04T05:55:46;3.53;;;2.05;;
35699;SDS011;21818;51.078;12.108;2023-12-04T05:58:12;3.50;;;2.28;;
35699;SDS011;21818;51.078;12.108;2023-12-04T06:00:38;2.42;;;1.45;;
35699;SDS011;21818;51.078;12.108;2023-12-04T06:03:03;3.35;;;1.80;;
35699;SDS011;21818;51.078;12.108;2023-12-04T06:05:29;2.83;;;1.65;;
35699;SDS011;21818;51.078;12.108;2023-12-04T06:07:54;1.73;;;1.42;;
35699;SDS011;21818;51.078;12.108;2023-12-04T06:10:20;3.75;;;1.90;;
35699;SDS011;21818;51.078;12.108;2023-12-04T06:12:45;2.47;;;1.88;;
35699;SDS011;21818;51.078;12.108;2023-12-04T06:15:11;3.03;;;2.13;;
35699;SDS011;21818;51.078;12.108;2023-12-04T06:17:36;3.05;;;1.67;;
35699;SDS011;21818;51.078;12.108;2023-12-04T06:20:02;2.88;;;1.77;;
35699;SDS011;21818;51.078;12.108;2023-12-04T06:22:28;2.38;;;1.33;;
35699;SDS011;21818;51.078;12.108;2023-12-04T06:24:54;2.03;;;1.40;;
35699;SDS011;21818;51.078;12.108;2023-12-04T06:27:19;2.80;;;1.88;;
35699;SDS011;21818;51.078;12.108;2023-12-04T06:29:46;2.72;;;1.88;;
35699;SDS011;21818;51.078;12.108;2023-12-04T06:32:12;2.63;;;1.48;;
35699;SDS011;21818;51.078;12.108;2023-12-04T06:34:38;3.35;;;1.77;;
35699;SDS011;21818;51.078;12.108;2023-12-04T06:37:08;3.33;;;2.00;;
35699;SDS011;21818;51.078;12.108;2023-12-04T06:39:35;3.08;;;1.85;;
35699;SDS011;21818;51.078;12.108;2023-12-04T06:42:04;3.00;;;2.00;;
35699;SDS011;21818;51.078;12.108;2023-12-04T06:44:30;3.35;;;2.30;;
35699;SDS011;21818;51.078;12.108;2023-12-04T06:46:56;3.35;;;1.92;;
35699;SDS011;21818;51.078;12.108;2023-12-04T06:51:56;2.95;;;2.03;;
35699;SDS011;21818;51.078;12.108;2023-12-04T06:54:21;2.13;;;1.48;;
35699;SDS011;21818;51.078;12.108;2023-12-04T06:56:47;4.15;;;2.20;;
35699;SDS011;21818;51.078;12.108;2023-12-04T06:59:13;3.15;;;1.92;;
35699;SDS011;21818;51.078;12.108;2023-12-04T07:01:38;4.10;;;2.38;;
35699;SDS011;21818;51.078;12.108;2023-12-04T07:04:04;3.47;;;2.35;;
35699;SDS011;21818;51.078;12.108;2023-12-04T07:06:35;2.90;;;2.25;;
35699;SDS011;21818;51.078;12.108;2023-12-04T07:09:04;2.97;;;2.03;;
35699;SDS011;21818;51.078;12.108;2023-12-04T07:11:32;3.30;;;1.92;;
35699;SDS011;21818;51.078;12.108;2023-12-04T07:13:58;4.60;;;2.08;;
35699;SDS011;21818;51.078;12.108;2023-12-04T07:16:24;3.35;;;2.10;;
35699;SDS011;21818;51.078;12.108;2023-12-04T07:18:50;3.53;;;2.20;;
35699;SDS011;21818;51.078;12.108;2023-12-04T07:21:15;3.58;;;2.40;;
35699;SDS011;21818;51.078;12.108;2023-12-04T07:23:41;4.13;;;2.53;;
35699;SDS011;21818;51.078;12.108;2023-12-04T07:26:06;2.67;;;1.92;;
35699;SDS011;21818;51.078;12.108;2023-12-04T07:28:32;2.58;;;1.90;;
35699;SDS011;21818;51.078;12.108;2023-12-04T07:30:58;4.25;;;2.20;;
35699;SDS011;21818;51.078;12.108;2023-12-04T07:33:25;4.63;;;2.22;;
35699;SDS011;21818;51.078;12.108;2023-12-04T07:35:51;2.25;;;1.60;;
35699;SDS011;21818;51.078;12.108;2023-12-04T07:38:16;9.77;;;1.95;;
35699;SDS011;21818;51.078;12.108;2023-12-04T07:40:43;3.80;;;2.15;;
35699;SDS011;21818;51.078;12.108;2023-12-04T07:43:09;2.97;;;1.70;;
35699;SDS011;21818;51.078;12.108;2023-12-04T07:45:35;5.45;;;1.70;;
35699;SDS011;21818;51.078;12.108;2023-12-04T07:48:02;5.40;;;2.78;;
35699;SDS011;21818;51.078;12.108;2023-12-04T07:50:31;3.28;;;2.03;;
35699;SDS011;21818;51.078;12.108;2023-12-04T07:52:57;2.63;;;2.20;;
35699;SDS011;21818;51.078;12.108;2023-12-04T07:55:22;2.92;;;2.00;;
35699;SDS011;21818;51.078;12.108;2023-12-04T07:57:48;4.07;;;2.55;;
35699;SDS011;21818;51.078;12.108;2023-12-04T08:00:15;2.63;;;1.90;;
35699;SDS011;21818;51.078;12.108;2023-12-04T08:02:42;6.53;;;3.60;;
35699;SDS011;21818;51.078;12.108;2023-12-04T08:05:09;6.88;;;4.10;;
35699;SDS011;21818;51.078;12.108;2023-12-04T08:07:35;5.38;;;2.60;;
35699;SDS011;21818;51.078;12.108;2023-12-04T08:10:01;6.40;;;4.30;;
35699;SDS011;21818;51.078;12.108;2023-12-04T08:12:26;2.90;;;1.73;;
35699;SDS011;21818;51.078;12.108;2023-12-04T08:14:52;4.13;;;2.80;;
35699;SDS011;21818;51.078;12.108;2023-12-04T08:17:18;4.38;;;2.58;;
35699;SDS011;21818;51.078;12.108;2023-12-04T08:19:44;6.15;;;2.40;;
35699;SDS011;21818;51.078;12.108;2023-12-04T08:22:09;5.63;;;1.92;;
35699;SDS011;21818;51.078;12.108;2023-12-04T08:24:35;3.35;;;1.77;;
35699;SDS011;21818;51.078;12.108;2023-12-04T08:27:00;3.40;;;1.92;;
35699;SDS011;21818;51.078;12.108;2023-12-04T08:29:26;3.92;;;1.67;;
35699;SDS011;21818;51.078;12.108;2023-12-04T08:31:52;3.92;;;1.30;;
35699;SDS011;21818;51.078;12.108;2023-12-04T08:34:17;6.40;;;1.25;;
35699;SDS011;21818;51.078;12.108;2023-12-04T08:36:43;2.10;;;1.40;;
35699;SDS011;21818;51.078;12.108;2023-12-04T08:39:09;2.72;;;1.38;;
35699;SDS011;21818;51.078;12.108;2023-12-04T08:41:34;4.47;;;1.63;;
35699;SDS011;21818;51.078;12.108;2023-12-04T08:44:00;2.90;;;1.20;;
35699;SDS011;21818;51.078;12.108;2023-12-04T08:46:26;2.30;;;1.10;;
35699;SDS011;21818;51.078;12.108;2023-12-04T08:48:51;2.60;;;1.52;;
35699;SDS011;21818;51.078;12.108;2023-12-04T08:51:17;1.92;;;1.38;;
35699;SDS011;21818;51.078;12.108;2023-12-04T08:53:43;3.47;;;1.27;;
35699;SDS011;21818;51.078;12.108;2023-12-04T08:56:09;1.48;;;1.10;;
35699;SDS011;21818;51.078;12.108;2023-12-04T08:58:35;2.17;;;1.30;;
35699;SDS011;21818;51.078;12.108;2023-12-04T09:01:01;3.25;;;1.30;;
35699;SDS011;21818;51.078;12.108;2023-12-04T09:03:28;4.57;;;1.42;;
35699;SDS011;21818;51.078;12.108;2023-12-04T09:05:55;1.85;;;1.42;;
35699;SDS011;21818;51.078;12.108;2023-12-04T09:08:22;3.70;;;1.35;;
35699;SDS011;21818;51.078;12.108;2023-12-04T09:10:48;1.67;;;1.13;;
35699;SDS011;21818;51.078;12.108;2023-12-04T09:13:14;2.30;;;1.08;;
35699;SDS011;21818;51.078;12.108;2023-12-04T09:15:40;1.83;;;1.00;;
35699;SDS011;21818;51.078;12.108;2023-12-04T09:18:05;1.33;;;0.88;;
35699;SDS011;21818;51.078;12.108;2023-12-04T09:20:31;1.90;;;1.30;;
35699;SDS011;21818;51.078;12.108;2023-12-04T09:22:56;2.53;;;1.30;;
35699;SDS011;21818;51.078;12.108;2023-12-04T09:25:22;3.42;;;1.10;;
35699;SDS011;21818;51.078;12.108;2023-12-04T09:27:48;4.53;;;2.17;;
35699;SDS011;21818;51.078;12.108;2023-12-04T09:30:13;4.00;;;2.40;;
35699;SDS011;21818;51.078;12.108;2023-12-04T09:32:39;3.88;;;2.25;;
35699;SDS011;21818;51.078;12.108;2023-12-04T09:35:05;1.98;;;1.13;;
35699;SDS011;21818;51.078;12.108;2023-12-04T09:37:31;2.17;;;1.40;;
35699;SDS011;21818;51.078;12.108;2023-12-04T09:39:56;1.60;;;1.20;;
35699;SDS011;21818;51.078;12.108;2023-12-04T09:42:22;2.42;;;1.50;;
35699;SDS011;21818;51.078;12.108;2023-12-04T09:44:48;2.60;;;1.38;;
35699;SDS011;21818;51.078;12.108;2023-12-04T09:47:20;2.17;;;1.50;;
35699;SDS011;21818;51.078;12.108;2023-12-04T09:49:46;1.75;;;1.20;;
35699;SDS011;21818;51.078;12.108;2023-12-04T09:52:13;1.17;;;0.90;;
35699;SDS011;21818;51.078;12.108;2023-12-04T09:54:39;1.65;;;1.20;;
35699;SDS011;21818;51.078;12.108;2023-12-04T09:57:06;1.80;;;1.10;;
35699;SDS011;21818;51.078;12.108;2023-12-04T09:59:33;1.63;;;1.00;;
35699;SDS011;21818;51.078;12.108;2023-12-04T10:02:01;2.03;;;1.20;;
35699;SDS011;21818;51.078;12.108;2023-12-04T10:04:26;1.25;;;1.00;;
35699;SDS011;21818;51.078;12.108;2023-12-04T10:06:52;0.95;;;0.85;;
35699;SDS011;21818;51.078;12.108;2023-12-04T10:09:18;2.60;;;1.55;;
35699;SDS011;21818;51.078;12.108;2023-12-04T10:11:44;1.48;;;1.00;;
35699;SDS011;21818;51.078;12.108;2023-12-04T10:14:28;2.00;;;0.98;;
35699;SDS011;21818;51.078;12.108;2023-12-04T10:16:55;1.10;;;0.98;;
35699;SDS011;21818;51.078;12.108;2023-12-04T10:19:22;1.67;;;1.08;;
35699;SDS011;21818;51.078;12.108;2023-12-04T10:21:53;1.85;;;1.00;;
35699;SDS011;21818;51.078;12.108;2023-12-04T10:24:34;1.27;;;0.95;;
35699;SDS011;21818;51.078;12.108;2023-12-04T10:27:01;1.80;;;1.23;;
35699;SDS011;21818;51.078;12.108;2023-12-04T10:29:30;1.60;;;1.23;;
35699;SDS011;21818;51.078;12.108;2023-12-04T10:32:08;3.00;;;1.77;;
35699;SDS011;21818;51.078;12.108;2023-12-04T10:34:34;2.03;;;1.10;;
35699;SDS011;21818;51.078;12.108;2023-12-04T10:37:00;1.55;;;1.23;;
35699;SDS011;21818;51.078;12.108;2023-12-04T10:39:27;1.42;;;0.98;;
35699;SDS011;21818;51.078;12.108;2023-12-04T10:42:00;1.55;;;1.02;;
35699;SDS011;21818;51.078;12.108;2023-12-04T10:44:27;1.13;;;0.80;;
35699;SDS011;21818;51.078;12.108;2023-12-04T10:46:54;1.90;;;0.77;;
35699;SDS011;21818;51.078;12.108;2023-12-04T10:49:24;1.13;;;0.70;;
35699;SDS011;21818;51.078;12.108;2023-12-04T10:51:56;3.00;;;1.30;;
35699;SDS011;21818;51.078;12.108;2023-12-04T10:54:26;1.90;;;1.10;;
35699;SDS011;21818;51.078;12.108;2023-12-04T10:56:52;1.48;;;1.10;;
35699;SDS011;21818;51.078;12.108;2023-12-04T10:59:22;1.33;;;1.00;;
35699;SDS011;21818;51.078;12.108;2023-12-04T11:01:52;1.58;;;0.93;;
35699;SDS011;21818;51.078;12.108;2023-12-04T11:04:20;2.28;;;1.55;;
35699;SDS011;21818;51.078;12.108;2023-12-04T11:06:52;1.60;;;1.00;;
35699;SDS011;21818;51.078;12.108;2023-12-04T11:09:18;4.97;;;1.38;;
35699;SDS011;21818;51.078;12.108;2023-12-04T11:11:46;1.10;;;0.70;;
35699;SDS011;21818;51.078;12.108;2023-12-04T11:14:16;1.48;;;0.90;;
35699;SDS011;21818;51.078;12.108;2023-12-04T11:16:48;1.90;;;0.82;;
35699;SDS011;21818;51.078;12.108;2023-12-04T11:19:18;1.15;;;0.98;;
35699;SDS011;21818;51.078;12.108;2023-12-04T11:21:52;2.08;;;0.80;;
35699;SDS011;21818;51.078;12.108;2023-12-04T11:24:18;2.80;;;1.40;;
35699;SDS011;21818;51.078;12.108;2023-12-04T11:26:46;1.25;;;0.80;;
35699;SDS011;21818;51.078;12.108;2023-12-04T11:29:12;2.40;;;1.27;;
35699;SDS011;21818;51.078;12.108;2023-12-04T11:31:38;3.58;;;1.30;;
35699;SDS011;21818;51.078;12.108;2023-12-04T11:34:04;1.73;;;1.35;;
35699;SDS011;21818;51.078;12.108;2023-12-04T11:36:32;3.78;;;1.95;;
35699;SDS011;21818;51.078;12.108;2023-12-04T11:38:59;2.50;;;1.50;;
35699;SDS011;21818;51.078;12.108;2023-12-04T11:41:25;2.15;;;1.20;;
35699;SDS011;21818;51.078;12.108;2023-12-04T11:43:51;1.65;;;1.20;;
35699;SDS011;21818;51.078;12.108;2023-12-04T11:46:25;1.88;;;1.40;;
35699;SDS011;21818;51.078;12.108;2023-12-04T11:48:56;1.92;;;1.10;;
35699;SDS011;21818;51.078;12.108;2023-12-04T11:54:10;2.58;;;0.80;;
35699;SDS011;21818;51.078;12.108;2023-12-04T11:56:39;1.77;;;1.25;;
35699;SDS011;21818;51.078;12.108;2023-12-04T11:59:05;1.92;;;1.38;;
35699;SDS011;21818;51.078;12.108;2023-12-04T12:01:38;8.52;;;3.38;;
35699;SDS011;21818;51.078;12.108;2023-12-04T12:04:04;2.53;;;1.42;;
35699;SDS011;21818;51.078;12.108;2023-12-04T12:06:30;3.55;;;0.88;;
35699;SDS011;21818;51.078;12.108;2023-12-04T12:08:56;1.67;;;1.08;;
35699;SDS011;21818;51.078;12.108;2023-12-04T12:11:23;1.55;;;0.85;;
35699;SDS011;21818;51.078;12.108;2023-12-04T12:13:49;2.10;;;0.90;;
35699;SDS011;21818;51.078;12.108;2023-12-04T12:16:14;1.33;;;0.95;;
35699;SDS011;21818;51.078;12.108;2023-12-04T12:18:40;1.42;;;0.90;;
35699;SDS011;21818;51.078;12.108;2023-12-04T12:21:06;1.38;;;1.05;;
35699;SDS011;21818;51.078;12.108;2023-12-04T12:23:32;2.80;;;1.40;;
35699;SDS011;21818;51.078;12.108;2023-12-04T12:25:59;2.83;;;1.20;;
35699;SDS011;21818;51.078;12.108;2023-12-04T12:28:25;2.47;;;1.40;;
35699;SDS011;21818;51.078;12.108;2023-12-04T12:30:50;1.27;;;0.93;;
35699;SDS011;21818;51.078;12.108;2023-12-04T12:33:19;2.72;;;0.73;;
35699;SDS011;21818;51.078;12.108;2023-12-04T12:35:46;2.13;;;1.05;;
35699;SDS011;21818;51.078;12.108;2023-12-04T12:38:12;1.95;;;1.08;;
35699;SDS011;21818;51.078;12.108;2023-12-04T12:40:38;1.65;;;1.20;;
35699;SDS011;21818;51.078;12.108;2023-12-04T12:43:04;2.58;;;1.40;;
35699;SDS011;21818;51.078;12.108;2023-12-04T12:45:38;1.35;;;0.75;;
35699;SDS011;21818;51.078;12.108;2023-12-04T12:48:04;1.88;;;0.93;;
35699;SDS011;21818;51.078;12.108;2023-12-04T12:50:31;1.25;;;0.90;;
35699;SDS011;21818;51.078;12.108;2023-12-04T12:52:56;1.27;;;0.90;;
35699;SDS011;21818;51.078;12.108;2023-12-04T12:55:23;2.53;;;1.38;;
35699;SDS011;21818;51.078;12.108;2023-12-04T12:57:49;3.03;;;1.73;;
35699;SDS011;21818;51.078;12.108;2023-12-04T13:00:15;2.28;;;1.30;;
35699;SDS011;21818;51.078;12.108;2023-12-04T13:02:44;1.83;;;1.20;;
35699;SDS011;21818;51.078;12.108;2023-12-04T13:05:09;1.75;;;0.77;;
35699;SDS011;21818;51.078;12.108;2023-12-04T13:07:36;1.70;;;1.13;;
35699;SDS011;21818;51.078;12.108;2023-12-04T13:10:02;0.88;;;0.80;;
35699;SDS011;21818;51.078;12.108;2023-12-04T13:12:30;2.45;;;0.82;;
35699;SDS011;21818;51.078;12.108;2023-12-04T13:14:56;1.55;;;0.95;;
35699;SDS011;21818;51.078;12.108;2023-12-04T13:17:21;1.75;;;1.25;;
35699;SDS011;21818;51.078;12.108;2023-12-04T13:19:47;1.08;;;0.80;;
35699;SDS011;21818;51.078;12.108;2023-12-04T13:22:12;1.42;;;0.77;;
35699;SDS011;21818;51.078;12.108;2023-12-04T13:24:38;1.40;;;0.88;;
35699;SDS011;21818;51.078;12.108;2023-12-04T13:27:06;1.38;;;0.85;;
35699;SDS011;21818;51.078;12.108;2023-12-04T13:29:31;0.90;;;0.75;;
35699;SDS011;21818;51.078;12.108;2023-12-04T13:31:57;1.70;;;0.80;;
35699;SDS011;21818;51.078;12.108;2023-12-04T13:34:24;1.67;;;0.90;;
35699;SDS011;21818;51.078;12.108;2023-12-04T13:36:49;1.95;;;0.90;;
35699;SDS011;21818;51.078;12.108;2023-12-04T13:39:15;1.55;;;0.95;;
35699;SDS011;21818;51.078;12.108;2023-12-04T13:41:51;1.77;;;0.88;;
35699;SDS011;21818;51.078;12.108;2023-12-04T13:44:35;2.10;;;1.05;;
35699;SDS011;21818;51.078;12.108;2023-12-04T13:47:02;0.93;;;0.57;;
35699;SDS011;21818;51.078;12.108;2023-12-04T13:49:28;0.70;;;0.60;;
35699;SDS011;21818;51.078;12.108;2023-12-04T13:51:54;1.23;;;0.80;;
35699;SDS011;21818;51.078;12.108;2023-12-04T13:54:20;1.20;;;0.70;;
35699;SDS011;21818;51.078;12.108;2023-12-04T13:56:51;2.50;;;0.70;;
35699;SDS011;21818;51.078;12.108;2023-12-04T13:59:21;0.98;;;0.60;;
35699;SDS011;21818;51.078;12.108;2023-12-04T14:01:48;2.17;;;0.90;;
35699;SDS011;21818;51.078;12.108;2023-12-04T14:04:17;1.38;;;0.90;;
35699;SDS011;21818;51.078;12.108;2023-12-04T14:06:43;1.50;;;0.90;;
35699;SDS011;21818;51.078;12.108;2023-12-04T14:09:09;1.23;;;0.77;;
35699;SDS011;21818;51.078;12.108;2023-12-04T14:11:36;0.95;;;0.68;;
35699;SDS011;21818;51.078;12.108;2023-12-04T14:14:02;1.15;;;0.70;;
35699;SDS011;21818;51.078;12.108;2023-12-04T14:16:28;0.90;;;0.70;;
35699;SDS011;21818;51.078;12.108;2023-12-04T14:18:55;1.35;;;0.80;;
35699;SDS011;21818;51.078;12.108;2023-12-04T14:21:20;1.30;;;0.80;;
35699;SDS011;21818;51.078;12.108;2023-12-04T14:23:46;2.22;;;0.98;;
35699;SDS011;21818;51.078;12.108;2023-12-04T14:26:12;1.60;;;1.00;;
35699;SDS011;21818;51.078;12.108;2023-12-04T14:28:37;1.92;;;1.02;;
35699;SDS011;21818;51.078;12.108;2023-12-04T14:31:03;0.88;;;0.70;;
35699;SDS011;21818;51.078;12.108;2023-12-04T14:33:29;1.30;;;0.70;;